Time;durP1;ratioP1;P1;durP2;ratioP2;P2;SDS_P1;SDS_P2;PMS_P1;PMS_P2;Temp;Humidity;BMP_temperature;BMP_pressure;BME280_temperature;BME280_humidity;BME280_pressure;Samples;Min_cycle;Max_cycle;Signal;HPM_P1;HPM_P2
2022/06/13 00:01:08;;;;;;;6.90;5.75;;;;;;;16.98;100.00;94423.22;5093140;28;20321;-63
2022/06/13 00:03:34;;;;;;;7.82;6.40;;;;;;;17.15;100.00;94422.09;5093119;28;20168;-63
2022/06/13 00:05:59;;;;;;;7.15;5.72;;;;;;;17.13;100.00;94431.75;5091675;28;20250;-63
2022/06/13 00:08:25;;;;;;;6.40;5.80;;;;;;;17.15;100.00;94429.81;5093012;28;20230;-64
2022/06/13 00:10:51;;;;;;;6.47;5.85;;;;;;;17.12;100.00;94425.81;5093336;28;20673;-63
2022/06/13 00:13:16;;;;;;;6.75;6.05;;;;;;;17.07;100.00;94428.09;5092705;28;20267;-63
2022/06/13 00:15:41;;;;;;;10.27;6.03;;;;;;;16.99;100.00;94428.16;5092629;28;20279;-64
2022/06/13 00:18:07;;;;;;;6.70;5.38;;;;;;;17.11;100.00;94438.84;5092723;28;20249;-63
2022/06/13 00:20:33;;;;;;;6.55;5.25;;;;;;;16.68;100.00;94441.09;5098722;22;20625;-62
2022/06/13 00:22:58;;;;;;;8.15;5.20;;;;;;;16.86;100.00;94443.38;5092034;28;20229;-63
2022/06/13 00:25:23;;;;;;;6.70;5.28;;;;;;;16.73;100.00;94438.81;5093426;28;20260;-61
2022/06/13 00:27:49;;;;;;;6.13;5.55;;;;;;;16.85;100.00;94443.56;5092873;28;20262;-64
2022/06/13 00:30:14;;;;;;;10.48;6.28;;;;;;;16.87;100.00;94446.75;5093087;28;20291;-66
2022/06/13 00:32:40;;;;;;;6.18;5.68;;;;;;;16.95;100.00;94452.59;5092718;28;20177;-65
2022/06/13 00:35:06;;;;;;;6.65;5.05;;;;;;;17.00;100.00;94447.75;5092840;28;20674;-65
2022/06/13 00:37:31;;;;;;;8.63;5.40;;;;;;;17.00;100.00;94434.09;5092333;28;20200;-65
2022/06/13 00:39:57;;;;;;;6.45;5.85;;;;;;;17.20;100.00;94453.19;5092763;28;20670;-64
2022/06/13 00:42:25;;;;;;;7.30;5.43;;;;;;;17.09;100.00;94451.06;5092222;28;20172;-63
2022/06/13 00:45:03;;;;;;;10.20;5.57;;;;;;;16.93;100.00;94446.06;5092481;28;20211;-64
2022/06/13 00:47:28;;;;;;;6.25;5.60;;;;;;;16.96;100.00;94453.41;5092296;28;20179;-63
2022/06/13 00:49:54;;;;;;;7.53;5.07;;;;;;;17.00;100.00;94449.50;5092506;28;20196;-64
2022/06/13 00:52:48;;;;;;;10.23;5.30;;;;;;;16.96;100.00;94441.38;5092211;28;20176;-63
2022/06/13 00:55:21;;;;;;;6.03;5.30;;;;;;;16.99;100.00;94440.22;5085244;28;20591;-65
2022/06/13 00:57:46;;;;;;;7.93;5.97;;;;;;;17.03;100.00;94438.91;5090732;28;20204;-64
2022/06/13 01:00:15;;;;;;;5.80;5.30;;;;;;;16.79;100.00;94434.75;5090884;28;20203;-65
2022/06/13 01:02:45;;;;;;;6.13;5.53;;;;;;;16.99;100.00;94445.38;5092090;28;20213;-65
2022/06/13 01:05:15;;;;;;;7.35;4.90;;;;;;;16.89;100.00;94443.00;5092523;28;20204;-64
2022/06/13 01:07:41;;;;;;;7.03;5.70;;;;;;;16.78;100.00;94435.75;5091962;28;20172;-65
2022/06/13 01:12:52;;;;;;;6.38;4.80;;;;;;;16.43;100.00;94423.44;5092284;28;20171;-63
2022/06/13 01:15:58;;;;;;;5.68;4.60;;;;;;;16.40;100.00;94428.94;5092288;28;20208;-64
2022/06/13 01:19:09;;;;;;;5.53;5.03;;;;;;;16.53;100.00;94431.75;5092332;28;20788;-64
2022/06/13 01:21:57;;;;;;;7.63;5.22;;;;;;;16.77;100.00;94437.50;5049509;28;20581;-63
2022/06/13 01:24:47;;;;;;;7.38;5.03;;;;;;;16.72;100.00;94433.88;5089413;28;20573;-60
2022/06/13 01:27:25;;;;;;;4.57;4.18;;;;;;;16.63;100.00;94440.00;5091872;28;20250;-63
2022/06/13 01:30:30;;;;;;;7.55;4.60;;;;;;;16.68;100.00;94422.34;5092054;28;20199;-63
2022/06/13 01:33:14;;;;;;;6.63;5.22;;;;;;;16.73;100.00;94422.59;5091739;28;20180;-63
2022/06/13 01:35:45;;;;;;;6.85;4.60;;;;;;;16.79;100.00;94427.84;5091534;28;20204;-64
2022/06/13 01:38:29;;;;;;;6.03;5.43;;;;;;;16.76;100.00;94438.50;5091544;28;20208;-61
2022/06/13 01:41:23;;;;;;;8.30;5.15;;;;;;;16.77;100.00;94437.50;5091800;28;20212;-62
2022/06/13 01:44:03;;;;;;;7.20;5.20;;;;;;;16.78;100.00;94438.31;5091758;28;20242;-64
2022/06/13 01:46:35;;;;;;;5.95;5.20;;;;;;;16.81;100.00;94439.75;5091860;28;20289;-61
2022/06/13 01:49:31;;;;;;;5.45;4.95;;;;;;;16.86;100.00;94434.88;5091622;28;20176;-64
2022/06/13 01:52:14;;;;;;;6.13;5.53;;;;;;;16.98;100.00;94430.91;5092556;28;20181;-65
2022/06/13 01:54:45;;;;;;;7.88;5.68;;;;;;;17.00;100.00;94431.53;5092501;28;20207;-60
2022/06/13 01:57:28;;;;;;;5.75;5.25;;;;;;;17.03;100.00;94433.78;5091662;28;20235;-60
2022/06/13 02:00:03;;;;;;;10.82;5.30;;;;;;;16.77;100.00;94436.69;5091496;28;20283;-60
2022/06/13 02:02:49;;;;;;;6.82;5.53;;;;;;;16.60;100.00;94442.94;5090334;28;20634;-61
2022/06/13 02:05:24;;;;;;;6.28;5.68;;;;;;;16.59;100.00;94444.69;5091959;28;20617;-63
2022/06/13 02:07:57;;;;;;;8.32;6.38;;;;;;;16.62;100.00;94448.69;5091338;28;20180;-63
2022/06/13 02:10:29;;;;;;;10.68;5.03;;;;;;;16.65;100.00;94440.63;5090507;28;20215;-62
2022/06/13 02:13:01;;;;;;;6.63;5.97;;;;;;;16.90;100.00;94449.75;5091525;28;20292;-61
2022/06/13 02:15:33;;;;;;;7.38;5.80;;;;;;;16.78;100.00;94446.81;5092101;28;20200;-61
2022/06/13 02:18:02;;;;;;;7.30;6.60;;;;;;;16.97;100.00;94455.00;5091325;28;20200;-62
2022/06/13 02:20:38;;;;;;;9.57;5.95;;;;;;;16.65;100.00;94444.00;5095081;28;20728;-61
2022/06/13 02:23:16;;;;;;;7.05;6.35;;;;;;;16.45;100.00;94440.28;5095420;28;20192;-64
2022/06/13 02:26:02;;;;;;;6.13;5.57;;;;;;;16.58;100.00;94453.34;5095449;28;20196;-61
2022/06/13 02:28:34;;;;;;;9.27;6.05;;;;;;;16.57;100.00;94451.78;5095064;28;20180;-59
2022/06/13 02:31:11;;;;;;;8.00;6.53;;;;;;;16.52;100.00;94446.34;5093465;28;20200;-61
2022/06/13 02:33:43;;;;;;;6.72;6.10;;;;;;;16.59;100.00;94446.47;5093603;28;21038;-61
2022/06/13 02:36:52;;;;;;;7.05;5.85;;;;;;;16.54;100.00;94444.41;5094745;28;20283;-60
2022/06/13 02:39:33;;;;;;;6.32;5.70;;;;;;;16.50;100.00;94411.56;5081510;22;20779;-60
2022/06/13 02:42:24;;;;;;;7.97;6.63;;;;;;;16.78;100.00;94449.38;5074888;28;20254;-63
2022/06/13 02:44:59;;;;;;;6.10;5.47;;;;;;;16.52;100.00;94446.34;5043356;28;20205;-62
2022/06/13 02:47:31;;;;;;;6.35;5.75;;;;;;;16.49;100.00;94449.25;5074609;28;20185;-63
2022/06/13 02:50:04;;;;;;;6.82;6.07;;;;;;;16.68;100.00;94443.66;5074298;28;20614;-64
2022/06/13 02:52:36;;;;;;;7.85;6.28;;;;;;;16.43;100.00;94455.03;5074554;28;20187;-65
2022/06/13 02:55:08;;;;;;;7.60;6.18;;;;;;;16.51;100.00;94451.66;5074076;28;20193;-64
2022/06/13 02:57:40;;;;;;;13.40;7.90;;;;;;;16.50;100.00;94458.53;5073941;28;20690;-64
2022/06/13 03:00:15;;;;;;;8.95;7.20;;;;;;;16.53;100.00;94455.66;5073946;28;20271;-64
2022/06/13 03:02:59;;;;;;;8.35;6.72;;;;;;;16.60;100.00;94456.53;5074492;28;20212;-64
2022/06/13 03:06:02;;;;;;;11.80;5.90;;;;;;;16.65;100.00;94459.41;5056010;28;20219;-61
2022/06/13 03:08:54;;;;;;;11.35;6.30;;;;;;;16.67;100.00;94466.94;5056139;28;20676;-63
2022/06/13 03:11:34;;;;;;;6.55;5.95;;;;;;;16.58;100.00;94455.91;5055824;28;20311;-64
2022/06/13 03:14:27;;;;;;;7.05;6.13;;;;;;;16.73;100.00;94467.06;5073744;28;20173;-64
2022/06/13 03:17:05;;;;;;;6.90;6.20;;;;;;;16.69;100.00;94468.38;5073798;28;20220;-63
2022/06/13 03:19:39;;;;;;;6.50;5.90;;;;;;;16.62;100.00;94471.81;5073957;28;20197;-64
2022/06/13 03:22:30;;;;;;;6.70;5.50;;;;;;;16.72;100.00;94469.81;5074038;28;20268;-65
2022/06/13 03:25:27;;;;;;;7.40;6.38;;;;;;;16.73;100.00;94473.94;5065260;28;20215;-61
2022/06/13 03:27:53;;;;;;;7.65;6.15;;;;;;;16.75;100.00;94472.00;5055906;28;20187;-66
2022/06/13 03:30:22;;;;;;;11.57;6.55;;;;;;;16.79;100.00;94468.94;5073101;28;20280;-64
2022/06/13 03:35:45;;;;;;;7.20;6.55;;;;;;;16.87;100.00;94485.28;5073662;28;20232;-60
2022/06/13 03:38:17;;;;;;;6.97;6.30;;;;;;;16.76;100.00;94487.25;5073539;28;20219;-61
2022/06/13 03:40:48;;;;;;;8.55;6.78;;;;;;;16.73;100.00;94481.66;5073284;28;20276;-61
2022/06/13 03:43:26;;;;;;;10.50;7.60;;;;;;;16.29;100.00;94444.69;5073793;28;20506;-63
2022/06/13 03:45:56;;;;;;;15.07;7.63;;;;;;;16.54;100.00;94485.47;5073338;28;20201;-64
2022/06/13 03:48:33;;;;;;;7.85;7.07;;;;;;;16.60;100.00;94487.34;5073152;28;20705;-64
2022/06/13 03:51:04;;;;;;;7.45;6.75;;;;;;;16.56;100.00;94480.19;5073060;28;20196;-64
2022/06/13 03:53:39;;;;;;;8.98;7.45;;;;;;;16.66;100.00;94488.44;5072966;28;20189;-64
2022/06/13 03:56:22;;;;;;;8.23;7.43;;;;;;;16.49;100.00;94487.75;5072883;28;20211;-68
2022/06/13 03:59:04;;;;;;;12.45;8.13;;;;;;;16.47;100.00;94496.56;5073211;28;20173;-61
2022/06/13 04:01:36;;;;;;;7.97;6.43;;;;;;;16.49;100.00;94492.88;5072923;28;20630;-64
2022/06/13 04:04:03;;;;;;;11.23;7.43;;;;;;;16.40;100.00;94463.06;5072884;28;20642;-65
2022/06/13 04:06:40;;;;;;;9.10;7.75;;;;;;;16.59;100.00;94487.53;5073056;28;20688;-68
2022/06/13 04:09:20;;;;;;;11.82;7.97;;;;;;;16.62;100.00;94490.53;5085595;22;20228;-65
2022/06/13 04:11:51;;;;;;;9.60;8.15;;;;;;;16.63;100.00;94484.47;5093231;28;20203;-64
2022/06/13 04:14:37;;;;;;;10.75;8.15;;;;;;;16.40;100.00;94454.59;5093053;28;20673;-64
2022/06/13 04:17:03;;;;;;;9.70;8.00;;;;;;;16.69;100.00;94488.91;5092890;28;20700;-61
2022/06/13 04:19:38;;;;;;;14.70;8.52;;;;;;;16.57;100.00;94490.28;5093158;28;20204;-63
2022/06/13 04:22:22;;;;;;;9.15;7.35;;;;;;;16.53;100.00;94496.72;5091656;28;20259;-63
2022/06/13 04:24:57;;;;;;;10.43;7.82;;;;;;;16.40;100.00;94493.84;5092771;28;20200;-63
2022/06/13 04:27:24;;;;;;;10.50;8.00;;;;;;;16.37;100.00;94490.84;5093039;28;20276;-64
2022/06/13 04:30:09;;;;;;;9.77;8.38;;;;;;;16.31;100.00;94491.50;5092698;28;20236;-64
2022/06/13 04:32:47;;;;;;;11.55;8.38;;;;;;;16.28;100.00;94484.16;5092960;28;20298;-61
2022/06/13 04:35:13;;;;;;;12.10;8.68;;;;;;;16.30;100.00;94488.13;5093094;28;20207;-62
2022/06/13 04:37:41;;;;;;;10.50;9.18;;;;;;;16.47;100.00;94483.72;5091276;28;20200;-65
2022/06/13 04:40:15;;;;;;;12.07;9.25;;;;;;;16.50;100.00;94476.50;5092864;28;20307;-64
2022/06/13 04:42:43;;;;;;;10.20;8.65;;;;;;;16.48;100.00;94480.19;5090425;28;20181;-65
2022/06/13 04:45:21;;;;;;;11.35;9.52;;;;;;;16.45;100.00;94476.19;5092766;28;20712;-64
2022/06/13 04:47:48;;;;;;;9.85;8.80;;;;;;;17.28;100.00;94478.81;5092351;28;20204;-65
2022/06/13 04:50:24;;;;;;;12.13;8.90;;;;;;;17.43;100.00;94485.56;5094629;28;20196;-65
2022/06/13 04:52:51;;;;;;;13.45;8.93;;;;;;;17.82;100.00;94484.53;5092738;28;20179;-62
2022/06/13 04:55:23;;;;;;;9.18;7.82;;;;;;;18.16;100.00;94487.38;5092652;28;20204;-65
2022/06/13 04:57:49;;;;;;;8.65;7.53;;;;;;;18.53;100.00;94483.84;5092232;28;20188;-65
2022/06/13 05:00:15;;;;;;;8.52;7.55;;;;;;;18.68;100.00;94476.88;5092758;28;20746;-65
2022/06/13 05:02:44;;;;;;;10.50;8.07;;;;;;;18.43;100.00;94476.44;5090888;28;20184;-64
2022/06/13 05:05:46;;;;;;;10.77;8.77;;;;;;;18.13;100.00;94477.44;5092585;28;20204;-66
2022/06/13 05:08:23;;;;;;;10.48;8.43;;;;;;;18.03;100.00;94471.78;5078025;22;20220;-67
2022/06/13 05:10:52;;;;;;;9.98;8.90;;;;;;;17.96;100.00;94471.69;5072846;28;20266;-68
2022/06/13 05:13:19;;;;;;;8.98;8.07;;;;;;;18.22;100.00;94474.56;5053823;28;20176;-66
2022/06/13 05:15:53;;;;;;;9.55;8.50;;;;;;;18.75;100.00;94477.72;5071902;28;20211;-65
2022/06/13 05:18:50;;;;;;;8.10;7.30;;;;;;;18.85;100.00;94471.31;5071788;28;20196;-61
2022/06/13 05:21:33;;;;;;;7.97;7.15;;;;;;;19.02;100.00;94487.31;5053698;28;20299;-67
2022/06/13 05:24:02;;;;;;;9.93;8.93;;;;;;;19.03;100.00;94481.97;5071697;28;20177;-64
2022/06/13 05:26:29;;;;;;;11.48;10.13;;;;;;;19.11;100.00;94487.00;5072070;28;20223;-60
2022/06/13 05:28:56;;;;;;;13.23;8.30;;;;;;;19.17;100.00;94488.81;5071692;28;20180;-61
2022/06/13 05:31:22;;;;;;;8.90;7.97;;;;;;;19.30;100.00;94483.00;5071915;28;20353;-60
2022/06/13 05:33:50;;;;;;;10.45;8.65;;;;;;;19.43;100.00;94480.56;5071618;28;20177;-65
2022/06/13 05:36:20;;;;;;;11.20;9.15;;;;;;;19.52;100.00;94487.16;5036972;28;20204;-61
2022/06/13 05:39:07;;;;;;;11.75;9.52;;;;;;;19.59;100.00;94484.63;5071654;28;20180;-66
2022/06/13 05:41:32;;;;;;;8.93;8.05;;;;;;;19.77;100.00;94483.16;5072006;28;20254;-60
2022/06/13 05:43:58;;;;;;;11.38;9.20;;;;;;;19.71;100.00;94485.69;5053591;28;20662;-60
2022/06/13 05:46:34;;;;;;;13.05;9.85;;;;;;;19.63;100.00;94488.41;5071316;28;20215;-64
2022/06/13 05:49:00;;;;;;;10.50;9.05;;;;;;;19.75;100.00;94492.88;5071752;28;20164;-65
2022/06/13 05:51:26;;;;;;;12.68;8.18;;;;;;;19.77;100.00;94480.56;5072535;28;20239;-65
2022/06/13 05:53:52;;;;;;;12.20;8.45;;;;;;;19.95;100.00;94488.59;5072402;28;20226;-64
2022/06/13 05:56:19;;;;;;;12.93;9.07;;;;;;;20.02;100.00;94484.25;5057310;28;20200;-65
2022/06/13 05:58:45;;;;;;;9.30;8.05;;;;;;;19.95;100.00;94492.97;5075396;28;20176;-66
2022/06/13 06:01:14;;;;;;;10.25;7.32;;;;;;;19.99;100.00;94478.69;5075447;28;20208;-67
2022/06/13 06:03:41;;;;;;;10.30;8.63;;;;;;;20.08;100.00;94491.25;5057251;28;20648;-67
2022/06/13 06:06:20;;;;;;;12.80;8.82;;;;;;;20.12;100.00;94496.03;5057060;28;20209;-65
2022/06/13 06:08:47;;;;;;;9.13;8.20;;;;;;;20.27;100.00;94501.88;5075244;28;20214;-61
2022/06/13 06:11:12;;;;;;;12.98;9.15;;;;;;;20.24;100.00;94502.28;5075515;28;20197;-64
2022/06/13 06:13:37;;;;;;;11.30;10.10;;;;;;;20.26;100.00;94506.22;5075162;28;20710;-65
2022/06/13 06:16:15;;;;;;;9.50;8.45;;;;;;;20.22;100.00;94504.25;5075171;28;20223;-63
2022/06/13 06:18:40;;;;;;;11.05;9.50;;;;;;;20.12;100.00;94490.88;5075211;28;20204;-65
2022/06/13 06:21:06;;;;;;;11.65;9.40;;;;;;;19.99;100.00;94500.16;5075067;28;20675;-65
2022/06/13 06:23:31;;;;;;;12.63;9.30;;;;;;;20.12;100.00;94498.63;5075133;28;20239;-64
2022/06/13 06:25:58;;;;;;;10.38;9.27;;;;;;;19.79;100.00;94488.13;5075023;28;20584;-65
2022/06/13 06:28:25;;;;;;;14.57;9.30;;;;;;;19.40;100.00;94493.00;5074698;28;20259;-64
2022/06/13 06:30:53;;;;;;;13.18;10.13;;;;;;;19.51;100.00;94490.72;5096643;23;20609;-60
2022/06/13 06:33:20;;;;;;;13.32;9.52;;;;;;;19.20;100.00;94493.63;5094883;28;20248;-65
2022/06/13 06:35:48;;;;;;;18.75;10.10;;;;;;;19.23;100.00;94498.41;5094986;28;20677;-60
2022/06/13 06:38:13;;;;;;;11.50;9.50;;;;;;;18.95;100.00;94494.97;5093518;28;20204;-66
2022/06/13 06:40:39;;;;;;;11.48;9.32;;;;;;;18.89;100.00;94497.47;5084523;22;20225;-65
2022/06/13 06:43:05;;;;;;;9.38;8.38;;;;;;;18.98;100.00;94499.78;5074762;28;20200;-65
2022/06/13 06:45:31;;;;;;;11.15;8.85;;;;;;;19.08;100.00;94507.19;5098174;22;20702;-66
2022/06/13 06:47:56;;;;;;;12.25;9.48;;;;;;;19.31;100.00;94507.75;5094728;28;20187;-65
2022/06/13 06:50:27;;;;;;;11.95;9.80;;;;;;;19.20;100.00;94501.34;5093511;28;20253;-60
2022/06/13 06:52:53;;;;;;;11.27;9.48;;;;;;;19.13;100.00;94479.88;5094823;28;20237;-61
2022/06/13 07:00:52;;;;;;;8.70;6.03;;;;;;;19.33;100.00;94521.31;5094627;28;20316;-65
2022/06/13 07:03:18;;;;;;;10.15;8.13;;;;;;;19.61;100.00;94537.63;5094789;28;20271;-60
2022/06/13 07:05:46;;;;;;;12.88;7.97;;;;;;;19.79;100.00;94513.91;5093655;28;20219;-59
2022/06/13 07:08:13;;;;;;;10.38;8.10;;;;;;;19.72;100.00;94497.59;5093468;28;20173;-64
2022/06/13 07:10:38;;;;;;;10.90;7.90;;;;;;;19.49;100.00;94490.13;5096038;28;20223;-64
2022/06/13 07:13:04;;;;;;;11.57;8.60;;;;;;;19.24;100.00;94478.56;5094649;28;20325;-60
2022/06/13 07:15:29;;;;;;;11.82;7.95;;;;;;;19.51;100.00;94484.75;5094731;28;20256;-65
2022/06/13 07:17:55;;;;;;;12.90;8.65;;;;;;;19.59;100.00;94497.50;5094223;28;20300;-63
2022/06/13 07:20:20;;;;;;;9.45;7.50;;;;;;;19.65;100.00;94499.34;5093063;28;20207;-63
2022/06/13 07:22:51;;;;;;;8.43;6.82;;;;;;;19.61;100.00;94493.78;5094191;28;20279;-66
2022/06/13 07:25:24;;;;;;;7.90;6.53;;;;;;;19.63;100.00;94509.84;5093347;28;20246;-62
2022/06/13 07:27:50;;;;;;;8.15;6.28;;;;;;;19.65;100.00;94484.66;5094267;28;20172;-63
2022/06/13 07:30:18;;;;;;;8.73;6.38;;;;;;;19.79;100.00;94517.28;5093782;28;20315;-63
2022/06/13 07:32:45;;;;;;;9.60;6.35;;;;;;;19.82;100.00;94498.84;5093986;28;20172;-64
2022/06/13 07:35:13;;;;;;;8.70;7.15;;;;;;;20.12;100.00;94508.94;5094319;28;20212;-66
2022/06/13 07:40:24;;;;;;;8.88;5.68;;;;;;;20.07;100.00;94541.28;5094338;28;20234;-64
2022/06/13 07:42:53;;;;;;;7.65;6.00;;;;;;;20.09;100.00;94508.34;5093574;28;20172;-64
2022/06/13 07:45:29;;;;;;;5.95;5.32;;;;;;;20.14;100.00;94506.97;5092563;28;20643;-66
2022/06/13 07:47:55;;;;;;;9.15;5.97;;;;;;;20.17;100.00;94522.84;5093563;28;20210;-65
2022/06/13 07:50:24;;;;;;;8.05;5.72;;;;;;;20.41;100.00;94521.59;5093802;28;20641;-65
2022/06/13 07:52:51;;;;;;;6.93;5.70;;;;;;;20.29;100.00;94538.63;5093447;28;20214;-61
2022/06/13 07:55:18;;;;;;;7.88;5.07;;;;;;;20.27;100.00;94532.84;5093960;28;20314;-64
2022/06/13 07:57:45;;;;;;;6.57;4.07;;;;;;;20.57;100.00;94550.47;5091849;28;20232;-63
2022/06/13 08:00:19;;;;;;;5.97;4.68;;;;;;;20.43;100.00;94523.00;5093782;28;20200;-64
2022/06/13 08:02:45;;;;;;;6.50;4.20;;;;;;;20.43;100.00;94504.13;5092112;28;20634;-64
2022/06/13 08:05:10;;;;;;;5.93;5.30;;;;;;;20.50;100.00;94497.97;5093683;28;20287;-60
2022/06/13 08:07:36;;;;;;;5.95;5.15;;;;;;;20.87;100.00;94549.19;5093084;28;20180;-60
2022/06/13 08:10:01;;;;;;;6.85;5.07;;;;;;;20.87;100.00;94540.63;5093404;28;20200;-63
2022/06/13 08:12:27;;;;;;;6.47;4.90;;;;;;;20.90;100.00;94517.00;5091705;28;20217;-64
2022/06/13 08:14:52;;;;;;;8.95;4.97;;;;;;;21.05;100.00;94512.47;5093382;28;20207;-64
2022/06/13 08:17:19;;;;;;;6.45;4.78;;;;;;;21.11;100.00;94534.16;5091612;28;20219;-62
2022/06/13 08:19:46;;;;;;;7.20;4.20;;;;;;;21.20;100.00;94544.13;5091782;28;20287;-60
2022/06/13 08:22:14;;;;;;;5.07;4.32;;;;;;;21.68;100.00;94544.72;5092733;28;20188;-61
2022/06/13 08:24:40;;;;;;;4.43;3.65;;;;;;;21.91;100.00;94596.91;5092886;28;20622;-62
2022/06/13 08:27:06;;;;;;;6.80;4.63;;;;;;;21.95;100.00;94532.59;5091424;28;20232;-64
2022/06/13 08:29:32;;;;;;;5.20;4.10;;;;;;;22.04;100.00;94565.03;5091460;28;20287;-65
2022/06/13 08:31:59;;;;;;;8.65;5.07;;;;;;;22.09;100.00;94539.31;5092593;28;20277;-64
2022/06/13 08:34:25;;;;;;;6.43;4.13;;;;;;;22.03;100.00;94532.38;5091333;28;20586;-64
2022/06/13 08:36:51;;;;;;;4.53;4.13;;;;;;;22.13;100.00;94532.75;5091230;28;20309;-64
2022/06/13 08:39:16;;;;;;;5.63;4.45;;;;;;;22.29;100.00;94542.66;5092949;28;20267;-64
2022/06/13 08:41:56;;;;;;;3.90;3.50;;;;;;;22.36;100.00;94579.72;5091482;28;20318;-65
2022/06/13 08:44:47;;;;;;;6.75;3.90;;;;;;;22.43;100.00;94562.34;5090912;28;20334;-64
2022/06/13 08:47:37;;;;;;;4.45;4.00;;;;;;;22.33;100.00;94627.53;5092446;28;20217;-66
2022/06/13 08:50:15;;;;;;;4.80;3.60;;;;;;;22.62;100.00;94573.69;5092196;28;20204;-66
2022/06/13 08:52:55;;;;;;;4.18;3.80;;;;;;;22.63;100.00;94568.28;5092293;28;20168;-65
2022/06/13 08:55:48;;;;;;;6.53;3.42;;;;;;;22.63;100.00;94583.84;5092534;28;20226;-65
2022/06/13 08:58:27;;;;;;;6.43;3.50;;;;;;;22.70;100.00;94571.66;5090836;28;20253;-64
2022/06/13 09:00:54;;;;;;;3.75;3.45;;;;;;;22.66;100.00;94564.50;5092344;28;20622;-66
2022/06/13 09:03:28;;;;;;;5.78;4.25;;;;;;;22.67;100.00;94558.28;5090718;28;20229;-65
2022/06/13 09:06:17;;;;;;;4.18;3.40;;;;;;;22.90;100.00;94587.13;5092159;28;20266;-64
2022/06/13 09:08:57;;;;;;;8.43;3.95;;;;;;;23.35;100.00;94659.56;5091081;28;20219;-64
2022/06/13 09:11:55;;;;;;;4.07;3.67;;;;;;;23.51;100.00;94650.50;5091835;28;20200;-65
2022/06/13 09:14:33;;;;;;;5.45;4.18;;;;;;;23.82;100.00;94593.34;5088436;28;20223;-65
2022/06/13 09:17:03;;;;;;;5.07;4.57;;;;;;;23.83;100.00;94612.31;5091886;28;20249;-64
2022/06/13 09:19:38;;;;;;;5.18;3.75;;;;;;;23.86;100.00;94615.28;5091853;28;20696;-65
2022/06/13 09:22:06;;;;;;;4.18;3.70;;;;;;;24.14;100.00;94596.69;5092068;28;20176;-65
2022/06/13 09:25:16;;;;;;;4.05;3.42;;;;;;;24.12;100.00;94617.69;5092013;28;20215;-65
2022/06/13 09:27:45;;;;;;;6.13;3.88;;;;;;;24.31;100.00;94691.31;5083689;28;20241;-66
2022/06/13 09:30:22;;;;;;;4.70;4.05;;;;;;;24.16;100.00;94652.63;5090110;28;20271;-61
2022/06/13 09:32:53;;;;;;;4.93;4.18;;;;;;;24.04;100.00;94620.56;5090643;28;20200;-60
2022/06/13 09:35:23;;;;;;;5.10;4.45;;;;;;;23.83;100.00;94610.53;5092297;28;20200;-65
2022/06/13 09:38:15;;;;;;;4.18;3.78;;;;;;;23.68;100.00;94565.09;5091819;28;20235;-61
2022/06/13 09:41:02;;;;;;;5.07;4.50;;;;;;;23.52;100.00;94550.03;5073119;28;20697;-61
2022/06/13 09:43:49;;;;;;;6.75;3.83;;;;;;;23.67;100.00;94529.78;5090282;28;20172;-61
2022/06/13 09:47:12;;;;;;;5.30;4.50;;;;;;;24.06;100.00;94591.75;5091677;28;20533;-64
2022/06/13 09:50:12;;;;;;;4.18;3.88;;;;;;;23.96;100.00;94618.19;5049252;28;20214;-63
2022/06/13 09:53:04;;;;;;;5.15;4.68;;;;;;;24.15;100.00;94580.09;5032542;28;20640;-63
2022/06/13 09:55:44;;;;;;;9.18;4.25;;;;;;;24.41;100.00;94582.44;5067724;28;20273;-64
2022/06/13 09:58:13;;;;;;;6.03;5.13;;;;;;;24.54;100.00;94608.31;5091529;28;20200;-63
2022/06/13 10:01:04;;;;;;;7.45;4.55;;;;;;;24.73;100.00;94570.91;5090637;28;20195;-61
2022/06/13 10:04:06;;;;;;;4.30;3.90;;;;;;;24.94;100.00;94593.88;5091554;28;20176;-63
2022/06/13 10:06:45;;;;;;;6.22;3.47;;;;;;;24.92;100.00;94621.91;5091426;28;20176;-61
2022/06/13 10:09:35;;;;;;;5.93;4.07;;;;;;;24.38;100.00;94602.88;5091373;28;20275;-64
2022/06/13 10:12:26;;;;;;;6.32;4.13;;;;;;;24.39;99.95;94628.66;5091707;28;20184;-61
2022/06/13 10:15:27;;;;;;;4.82;4.18;;;;;;;24.58;99.20;94640.66;5091523;28;20200;-61
2022/06/13 10:18:11;;;;;;;5.68;4.05;;;;;;;24.31;99.00;94631.53;5090071;28;20708;-64
2022/06/13 10:20:56;;;;;;;7.10;4.15;;;;;;;24.33;99.34;94621.72;5092104;28;20303;-64
2022/06/13 10:23:37;;;;;;;4.82;4.32;;;;;;;24.37;100.00;94549.28;5091443;28;20181;-64
2022/06/13 10:26:27;;;;;;;4.95;4.40;;;;;;;25.11;100.00;94588.06;5089925;28;20200;-65
2022/06/13 10:29:04;;;;;;;4.70;3.85;;;;;;;25.24;95.60;94671.97;5091199;28;20184;-61
2022/06/13 10:31:34;;;;;;;7.00;4.07;;;;;;;25.60;96.13;94653.69;5091177;28;20172;-60
2022/06/13 10:34:28;;;;;;;7.43;4.32;;;;;;;25.76;84.09;94719.97;5089692;28;20211;-59
2022/06/13 10:37:19;;;;;;;6.03;4.72;;;;;;;25.93;83.59;94649.78;5091318;28;20204;-59
2022/06/13 10:39:47;;;;;;;63.90;48.03;;;;;;;26.15;80.77;94690.78;5091405;28;20219;-59
2022/06/13 10:42:18;;;;;;;6.95;6.25;;;;;;;26.32;77.25;94717.00;5094355;28;20685;-64
2022/06/13 10:44:44;;;;;;;9.18;4.68;;;;;;;26.64;79.42;94645.22;5095110;28;20708;-66
2022/06/13 10:47:34;;;;;;;5.43;4.50;;;;;;;26.58;76.61;94674.81;5093474;28;20247;-60
2022/06/13 10:50:07;;;;;;;5.03;4.35;;;;;;;26.88;74.96;94685.16;5094916;28;20219;-60
2022/06/13 10:52:40;;;;;;;8.05;4.57;;;;;;;26.97;78.01;94581.97;5093174;28;20173;-60
2022/06/13 10:55:09;;;;;;;6.35;4.80;;;;;;;27.39;74.66;94695.63;5094841;28;20215;-60
2022/06/13 10:57:43;;;;;;;6.13;4.65;;;;;;;27.36;73.54;94686.44;5094722;28;20519;-61
2022/06/13 11:00:13;;;;;;;5.15;4.65;;;;;;;27.66;73.95;94665.28;5095128;28;20291;-62
2022/06/13 11:02:38;;;;;;;8.02;4.82;;;;;;;27.83;71.11;94705.34;5093035;28;20177;-63
2022/06/13 11:05:14;;;;;;;7.90;5.40;;;;;;;27.63;71.80;94673.63;5094715;28;20219;-63
2022/06/13 11:07:47;;;;;;;6.93;5.03;;;;;;;27.88;67.22;94734.16;5093455;28;20203;-62
2022/06/13 11:10:36;;;;;;;5.03;4.50;;;;;;;28.14;66.00;94735.41;5094118;28;20257;-61
2022/06/13 11:13:05;;;;;;;5.82;5.03;;;;;;;28.22;69.77;94630.41;5094379;28;20184;-62
2022/06/13 11:24:15;;;;;;;5.25;4.78;;;;;;;28.03;57.68;94768.47;5073969;28;20168;-64
2022/06/13 11:29:30;;;;;;;6.07;5.00;;;;;;;28.06;63.06;94624.19;5093916;28;20273;-63
2022/06/13 11:31:59;;;;;;;7.18;5.00;;;;;;;28.23;61.37;94661.59;5093913;28;20579;-63
2022/06/13 11:34:27;;;;;;;5.07;4.43;;;;;;;28.37;61.26;94661.25;5093614;28;20197;-63
2022/06/13 11:37:22;;;;;;;4.63;4.22;;;;;;;28.61;62.66;94626.84;5093898;28;20818;-61
2022/06/13 11:39:51;;;;;;;6.20;5.05;;;;;;;27.78;60.30;94666.03;5090140;28;20746;-62
2022/06/13 11:42:24;;;;;;;6.30;5.15;;;;;;;27.45;63.10;94598.06;5093824;28;20550;-63
2022/06/13 11:45:23;;;;;;;4.75;4.35;;;;;;;27.28;66.95;94503.19;5093603;28;20261;-64
2022/06/13 11:47:50;;;;;;;5.32;4.82;;;;;;;28.05;65.00;94559.84;5093416;28;20181;-62
2022/06/13 11:50:22;;;;;;;6.82;4.65;;;;;;;28.11;65.70;94534.56;5092091;28;20223;-59
2022/06/13 11:55:48;;;;;;;5.88;4.68;;;;;;;28.28;62.97;94594.69;5093250;28;20215;-60
2022/06/13 11:58:30;;;;;;;5.88;4.80;;;;;;;28.44;64.25;94554.63;5093697;28;20207;-60
2022/06/13 12:01:17;;;;;;;9.30;5.10;;;;;;;28.28;62.28;94598.06;5093729;28;20211;-62
2022/06/13 12:03:48;;;;;;;8.48;5.05;;;;;;;28.24;62.45;94603.00;5093323;28;20168;-61
2022/06/13 12:06:17;;;;;;;5.00;4.35;;;;;;;28.37;60.59;94616.78;5093638;28;20232;-62
2022/06/13 12:08:50;;;;;;;6.68;4.93;;;;;;;28.82;64.42;94544.13;5093143;28;20176;-63
2022/06/13 12:11:15;;;;;;;5.78;5.18;;;;;;;29.17;58.11;94696.44;5081831;22;20225;-63
2022/06/13 12:13:45;;;;;;;6.43;5.10;;;;;;;29.12;54.37;94754.00;5072779;28;20193;-61
2022/06/13 12:16:17;;;;;;;5.28;4.75;;;;;;;29.24;55.79;94710.16;5072664;28;20758;-62
2022/06/13 12:18:56;;;;;;;5.07;4.57;;;;;;;29.38;59.59;94608.41;5072911;28;20270;-62
2022/06/13 12:21:45;;;;;;;6.82;4.97;;;;;;;29.45;58.44;94609.78;5072443;28;20208;-61
2022/06/13 12:24:10;;;;;;;5.43;4.63;;;;;;;29.57;59.06;94617.53;5072514;28;20216;-62
2022/06/13 12:26:42;;;;;;;5.35;4.65;;;;;;;29.55;54.77;94703.47;5072481;28;20213;-61